Florence, Missouri
Current Conditions -  °F | °C
As of 3:53 AM on Saturday 25 Oct 2014 (Local Time) from KDMO Reporting Station
Clear Clear  
Wind Chill: 63°   Ceiling: Unl
Heat Index: 63°   Visibility: 9mi
Dew Point: 59°   Wind: 8mph
Humidity: 87%   Direction: 240°WSW
Pressure: 30.01"   Gusts: NA
Location:  38.59°N, 92.98°W
Report Text: KDMO 250853Z AUTO 24007KT 9SM CLR 17/15 A3001 RMK AO2 SLP158 T01720150 53001
Loading
Personal Weather Stations






























Interactive Weather Map
Tropical Storm Tracking
New forecast layout! Learn more

10-Day Weather Forecast

Advertisements
Track Severe Weather on mobile